Time;durP1;ratioP1;P1;durP2;ratioP2;P2;SDS_P1;SDS_P2;PMS_P1;PMS_P2;Temp;Humidity;BMP_temperature;BMP_pressure;BME280_temperature;BME280_humidity;BME280_pressure;Samples;Min_cycle;Max_cycle;Signal;HPM_P1;HPM_P2
2024/03/22 00:02:16;;;;;;;21.43;12.63;;;7.70;99.90;;;;;;5054808;28;21002;-70
2024/03/22 00:04:42;;;;;;;21.10;12.70;;;7.60;99.90;;;;;;5043715;28;20846;-72
2024/03/22 00:07:09;;;;;;;19.07;12.33;;;7.70;99.90;;;;;;5043181;28;20457;-70
2024/03/22 00:09:35;;;;;;;24.80;12.80;;;7.80;99.90;;;;;;5044671;28;20448;-71
2024/03/22 00:12:02;;;;;;;19.83;12.70;;;7.70;99.90;;;;;;5042392;28;21435;-71
2024/03/22 00:14:28;;;;;;;18.10;11.13;;;7.50;99.90;;;;;;5042148;28;20452;-69
2024/03/22 00:16:55;;;;;;;22.90;13.70;;;7.30;99.90;;;;;;5044369;28;20461;-70
2024/03/22 00:19:23;;;;;;;18.37;12.10;;;7.10;99.90;;;;;;5044376;28;20450;-72
2024/03/22 00:21:49;;;;;;;22.23;13.27;;;7.10;99.90;;;;;;5043658;28;21056;-71
2024/03/22 00:24:15;;;;;;;20.83;12.90;;;7.10;99.90;;;;;;5043376;28;20880;-71
2024/03/22 00:26:42;;;;;;;18.53;13.17;;;7.10;99.90;;;;;;5044464;28;21298;-72
2024/03/22 00:29:08;;;;;;;19.17;12.70;;;7.10;99.90;;;;;;5037683;28;20504;-70
2024/03/22 00:31:36;;;;;;;20.83;13.47;;;7.10;99.90;;;;;;5040652;28;20833;-70
2024/03/22 00:34:01;;;;;;;19.03;12.40;;;7.20;99.90;;;;;;5042837;28;20464;-71
2024/03/22 00:36:30;;;;;;;19.63;12.33;;;7.10;99.90;;;;;;5043026;28;21164;-71
2024/03/22 00:38:57;;;;;;;22.17;12.60;;;7.00;99.90;;;;;;5040659;28;20448;-70
2024/03/22 00:41:24;;;;;;;20.57;13.23;;;6.90;99.90;;;;;;5038771;28;20481;-72
2024/03/22 00:43:50;;;;;;;21.13;12.90;;;7.00;99.90;;;;;;5039202;28;20482;-72
2024/03/22 00:46:17;;;;;;;21.63;13.10;;;6.90;99.90;;;;;;5044500;28;20453;-70
2024/03/22 00:48:43;;;;;;;19.23;11.93;;;6.90;99.90;;;;;;5046626;28;20449;-70
2024/03/22 00:51:10;;;;;;;21.17;13.57;;;6.80;99.90;;;;;;5045898;28;20488;-70
2024/03/22 00:53:37;;;;;;;19.70;12.57;;;6.70;99.90;;;;;;5045237;28;20873;-70
2024/03/22 00:56:05;;;;;;;19.27;12.70;;;6.90;99.90;;;;;;5045790;28;20522;-69
2024/03/22 00:58:31;;;;;;;24.23;13.53;;;6.90;99.90;;;;;;5038142;28;20825;-69
2024/03/22 01:00:58;;;;;;;18.07;11.73;;;6.80;99.90;;;;;;5046447;28;20994;-69
2024/03/22 01:03:24;;;;;;;18.40;12.63;;;6.60;99.90;;;;;;5044638;28;20479;-69
2024/03/22 01:05:51;;;;;;;18.90;13.40;;;6.60;99.90;;;;;;5049013;28;20500;-70
2024/03/22 01:08:17;;;;;;;25.00;13.60;;;6.60;99.90;;;;;;5048695;28;20535;-69
2024/03/22 01:10:46;;;;;;;20.50;13.90;;;6.50;99.90;;;;;;5048005;28;20479;-69
2024/03/22 01:13:12;;;;;;;20.27;12.80;;;6.60;99.90;;;;;;5045012;28;20472;-70
2024/03/22 01:15:39;;;;;;;21.20;13.07;;;6.50;99.90;;;;;;5046805;28;20826;-70
2024/03/22 01:18:05;;;;;;;20.83;12.80;;;6.30;99.90;;;;;;5047555;28;20816;-69
2024/03/22 01:20:32;;;;;;;22.47;13.60;;;6.30;99.90;;;;;;5047241;28;20487;-69
2024/03/22 01:22:59;;;;;;;19.30;12.57;;;6.30;99.90;;;;;;5045155;28;20472;-69
2024/03/22 01:25:26;;;;;;;22.03;12.90;;;6.20;99.90;;;;;;5046842;28;20452;-69
2024/03/22 01:27:56;;;;;;;20.13;12.70;;;6.10;99.90;;;;;;5046694;28;20448;-69
2024/03/22 01:30:23;;;;;;;22.63;12.67;;;6.20;99.90;;;;;;5046209;28;20456;-69
2024/03/22 01:32:49;;;;;;;19.60;13.13;;;6.20;99.90;;;;;;5045007;28;20470;-68
2024/03/22 01:35:16;;;;;;;17.87;11.80;;;6.30;99.90;;;;;;5046362;28;20462;-70
2024/03/22 01:37:42;;;;;;;17.77;11.43;;;6.50;99.90;;;;;;5046458;28;20521;-70
2024/03/22 01:40:10;;;;;;;20.43;11.50;;;6.50;99.90;;;;;;5045426;28;20454;-70
2024/03/22 01:42:35;;;;;;;21.83;13.10;;;6.40;99.90;;;;;;5044330;28;20491;-69
2024/03/22 01:45:04;;;;;;;18.90;12.00;;;6.40;99.90;;;;;;5046583;28;20456;-69
2024/03/22 01:47:30;;;;;;;20.20;12.57;;;6.30;99.90;;;;;;5046901;28;20453;-69
2024/03/22 01:49:58;;;;;;;19.70;11.90;;;6.20;99.90;;;;;;5045934;28;20460;-70
2024/03/22 01:52:24;;;;;;;20.87;13.37;;;6.00;99.90;;;;;;5044807;28;20468;-69
2024/03/22 01:54:51;;;;;;;24.30;13.20;;;5.90;99.90;;;;;;5046337;28;20928;-69
2024/03/22 01:57:17;;;;;;;18.07;11.37;;;5.90;99.90;;;;;;5045820;28;20452;-71
2024/03/22 01:59:45;;;;;;;20.07;12.40;;;5.80;99.90;;;;;;5045552;28;20521;-70
2024/03/22 02:02:12;;;;;;;20.53;12.80;;;5.80;99.90;;;;;;5045014;28;20487;-69
2024/03/22 02:04:39;;;;;;;19.43;11.80;;;5.60;99.90;;;;;;5045059;28;20928;-69
2024/03/22 02:07:05;;;;;;;19.90;12.53;;;5.70;99.90;;;;;;5045425;28;20957;-70
2024/03/22 02:09:32;;;;;;;19.90;12.60;;;5.60;99.90;;;;;;5045580;28;20440;-71
2024/03/22 02:11:58;;;;;;;19.63;12.40;;;5.70;99.90;;;;;;5044112;28;20529;-69
2024/03/22 02:14:26;;;;;;;20.33;12.40;;;5.90;99.90;;;;;;5045869;28;20447;-70
2024/03/22 02:16:52;;;;;;;19.53;12.60;;;6.00;99.90;;;;;;5045904;28;20561;-69
2024/03/22 02:19:20;;;;;;;17.00;12.50;;;5.70;99.90;;;;;;5046896;28;20537;-70
2024/03/22 02:21:46;;;;;;;20.63;11.63;;;5.60;99.90;;;;;;5045516;28;20495;-71
2024/03/22 02:24:15;;;;;;;21.20;13.60;;;5.50;99.90;;;;;;5044987;28;20537;-70
2024/03/22 02:26:42;;;;;;;20.63;12.10;;;5.60;99.90;;;;;;5046464;28;20452;-70
2024/03/22 02:29:08;;;;;;;18.80;11.67;;;5.60;99.90;;;;;;5046578;28;20448;-70
2024/03/22 02:31:35;;;;;;;17.33;11.00;;;5.60;99.90;;;;;;5045044;28;20499;-69
2024/03/22 02:34:01;;;;;;;18.70;12.07;;;5.50;99.90;;;;;;5045664;28;20457;-72
2024/03/22 02:36:28;;;;;;;20.00;12.57;;;5.60;99.90;;;;;;5046415;28;20544;-70
2024/03/22 02:38:54;;;;;;;24.30;13.53;;;5.40;99.90;;;;;;5045776;28;20773;-70
2024/03/22 02:41:23;;;;;;;19.17;12.60;;;5.40;99.90;;;;;;5045557;28;20476;-70
2024/03/22 02:43:49;;;;;;;20.50;13.43;;;5.50;99.90;;;;;;5044283;28;20947;-69
2024/03/22 02:46:16;;;;;;;18.50;12.43;;;5.70;99.90;;;;;;5044888;28;21030;-71
2024/03/22 02:48:42;;;;;;;21.27;12.37;;;5.70;99.90;;;;;;5045309;28;20506;-70
2024/03/22 02:51:09;;;;;;;20.20;12.53;;;5.60;99.90;;;;;;5044626;28;20455;-70
2024/03/22 02:53:35;;;;;;;20.07;12.20;;;5.50;99.90;;;;;;5043584;28;20486;-70
2024/03/22 02:56:02;;;;;;;21.10;13.10;;;5.40;99.90;;;;;;5044249;28;20452;-72
2024/03/22 02:58:29;;;;;;;19.17;12.33;;;5.30;99.90;;;;;;5045175;28;20460;-70
2024/03/22 03:00:56;;;;;;;19.63;12.30;;;5.40;99.90;;;;;;5044627;28;20456;-70
2024/03/22 03:03:22;;;;;;;19.40;12.03;;;5.40;99.90;;;;;;5043744;28;20475;-69
2024/03/22 03:05:49;;;;;;;18.80;12.70;;;5.40;99.90;;;;;;5044510;28;21008;-70
2024/03/22 03:08:15;;;;;;;21.70;13.80;;;5.40;99.90;;;;;;5043284;28;20506;-70
2024/03/22 03:10:42;;;;;;;19.80;12.40;;;5.60;99.90;;;;;;5044739;28;20470;-69
2024/03/22 03:13:08;;;;;;;22.80;12.90;;;5.70;99.90;;;;;;5042623;28;20498;-70
2024/03/22 03:15:37;;;;;;;20.63;13.27;;;5.60;99.90;;;;;;5044585;28;20545;-70
2024/03/22 03:18:03;;;;;;;21.23;14.43;;;5.60;99.90;;;;;;5044857;28;20895;-71
2024/03/22 03:20:30;;;;;;;22.57;13.97;;;5.50;99.90;;;;;;5044514;28;20465;-69
2024/03/22 03:22:59;;;;;;;22.20;14.30;;;5.50;99.90;;;;;;5042809;28;20471;-70
2024/03/22 03:25:26;;;;;;;23.27;15.60;;;5.50;99.90;;;;;;5044629;28;20880;-69
2024/03/22 03:27:52;;;;;;;26.00;16.13;;;5.70;99.90;;;;;;5044545;28;20938;-71
2024/03/22 03:30:19;;;;;;;22.07;14.90;;;5.70;99.90;;;;;;5044921;28;20468;-70
2024/03/22 03:32:47;;;;;;;22.03;14.30;;;5.80;99.90;;;;;;5042835;28;20494;-70
2024/03/22 03:35:14;;;;;;;21.40;14.13;;;5.90;99.90;;;;;;5045294;28;20450;-70
2024/03/22 03:37:40;;;;;;;23.17;14.87;;;5.70;99.90;;;;;;5047957;28;20447;-69
2024/03/22 03:40:08;;;;;;;22.77;14.20;;;5.70;99.90;;;;;;5047551;28;20531;-69
2024/03/22 03:42:34;;;;;;;23.63;13.90;;;5.70;99.90;;;;;;5047704;28;20479;-70
2024/03/22 03:45:01;;;;;;;24.83;15.73;;;5.80;99.90;;;;;;5048715;28;20487;-70
2024/03/22 03:47:27;;;;;;;22.50;15.10;;;5.80;99.90;;;;;;5048176;28;20522;-70
2024/03/22 03:49:56;;;;;;;24.03;16.03;;;5.70;99.90;;;;;;5047955;28;20456;-70
2024/03/22 03:52:22;;;;;;;21.90;15.57;;;5.70;99.90;;;;;;5046463;28;20480;-71
2024/03/22 03:54:49;;;;;;;23.70;15.53;;;5.60;99.90;;;;;;5048021;28;20898;-71
2024/03/22 03:57:15;;;;;;;24.27;14.83;;;5.40;99.90;;;;;;5048260;28;20464;-69
2024/03/22 03:59:41;;;;;;;24.30;14.73;;;5.30;99.90;;;;;;5047965;28;20485;-69
2024/03/22 04:02:07;;;;;;;22.60;15.10;;;5.30;99.90;;;;;;5047997;28;20541;-70
2024/03/22 04:04:34;;;;;;;23.83;14.67;;;5.30;99.90;;;;;;5039595;28;20457;-69
2024/03/22 04:07:02;;;;;;;24.63;14.70;;;5.30;99.90;;;;;;5046954;28;20482;-68
2024/03/22 04:09:29;;;;;;;20.77;13.33;;;5.50;99.90;;;;;;5047947;28;20463;-68
2024/03/22 04:11:58;;;;;;;22.30;14.77;;;5.50;99.90;;;;;;5047166;28;20903;-69
2024/03/22 04:14:25;;;;;;;25.23;15.23;;;5.50;99.90;;;;;;5047581;28;20452;-69
2024/03/22 04:16:51;;;;;;;26.20;14.40;;;5.60;99.90;;;;;;5049279;28;20455;-69
2024/03/22 04:19:18;;;;;;;21.20;13.93;;;5.80;99.90;;;;;;5049274;28;20460;-68
2024/03/22 04:21:44;;;;;;;22.30;12.77;;;5.90;99.90;;;;;;5047983;28;20953;-68
2024/03/22 04:24:13;;;;;;;22.20;12.90;;;5.90;99.90;;;;;;5047442;28;20450;-70
2024/03/22 04:26:39;;;;;;;26.10;13.87;;;5.90;99.90;;;;;;5047060;28;20448;-68
2024/03/22 04:29:05;;;;;;;20.83;13.07;;;5.80;99.90;;;;;;5047302;28;20505;-70
2024/03/22 04:31:32;;;;;;;23.00;14.47;;;5.80;99.90;;;;;;5047356;28;20452;-69
2024/03/22 04:33:59;;;;;;;22.00;14.03;;;5.70;99.90;;;;;;5046236;28;21121;-69
2024/03/22 04:36:25;;;;;;;21.10;13.20;;;5.70;99.90;;;;;;5047256;28;20827;-68
2024/03/22 04:38:52;;;;;;;23.80;13.20;;;5.90;99.90;;;;;;5047370;28;20440;-70
2024/03/22 04:41:20;;;;;;;22.70;13.20;;;5.90;99.90;;;;;;5047077;28;20605;-69
2024/03/22 04:43:47;;;;;;;20.73;13.33;;;5.80;99.90;;;;;;5046439;28;20857;-71
2024/03/22 04:46:14;;;;;;;24.27;14.77;;;5.80;99.90;;;;;;5046859;28;20479;-69
2024/03/22 04:48:40;;;;;;;22.03;12.43;;;5.80;99.90;;;;;;5046930;28;20455;-69
2024/03/22 04:51:07;;;;;;;20.60;14.00;;;5.80;99.90;;;;;;5045832;28;20942;-68
2024/03/22 04:53:33;;;;;;;18.67;11.90;;;5.70;99.90;;;;;;5046688;28;20924;-70
2024/03/22 04:56:00;;;;;;;21.30;12.63;;;5.70;99.90;;;;;;5050098;28;20455;-69
2024/03/22 04:58:27;;;;;;;21.07;11.97;;;5.70;99.90;;;;;;5047641;28;21156;-69
2024/03/22 05:00:58;;;;;;;19.00;11.87;;;5.70;99.90;;;;;;5046805;28;20448;-69
2024/03/22 05:03:24;;;;;;;19.40;12.80;;;5.80;99.90;;;;;;5045990;28;20464;-68
2024/03/22 05:05:51;;;;;;;18.93;12.03;;;5.80;99.90;;;;;;5046779;28;20451;-68
2024/03/22 05:08:17;;;;;;;21.00;12.27;;;5.70;99.90;;;;;;5047030;28;20452;-71
2024/03/22 05:10:44;;;;;;;18.40;11.97;;;5.70;99.90;;;;;;5033841;28;20452;-69
2024/03/22 05:13:11;;;;;;;18.57;11.30;;;5.80;99.90;;;;;;5044990;28;20480;-69
2024/03/22 05:15:39;;;;;;;17.37;11.27;;;5.90;99.90;;;;;;5046821;28;20875;-68
2024/03/22 05:18:05;;;;;;;21.20;12.60;;;5.90;99.90;;;;;;5046756;28;20618;-69
2024/03/22 05:20:32;;;;;;;20.60;12.40;;;5.90;99.90;;;;;;5046625;28;20455;-69
2024/03/22 05:22:58;;;;;;;18.00;11.50;;;6.00;99.90;;;;;;5045200;28;20848;-69
2024/03/22 05:25:25;;;;;;;20.30;12.00;;;6.10;99.90;;;;;;5046613;28;20452;-69
2024/03/22 05:27:52;;;;;;;19.20;11.90;;;6.10;99.90;;;;;;5046717;28;20448;-69
2024/03/22 05:30:19;;;;;;;20.17;11.20;;;6.30;99.90;;;;;;5047478;28;20474;-70
2024/03/22 05:32:46;;;;;;;21.40;11.77;;;6.30;99.90;;;;;;5046097;28;20609;-69
2024/03/22 05:35:13;;;;;;;19.80;11.50;;;6.60;99.90;;;;;;5047432;28;20448;-69
2024/03/22 05:37:39;;;;;;;18.30;13.20;;;6.50;99.90;;;;;;5047869;28;20459;-68
2024/03/22 05:40:08;;;;;;;18.17;11.33;;;6.60;99.90;;;;;;5046955;28;20529;-68
2024/03/22 05:42:34;;;;;;;19.00;12.03;;;6.50;99.90;;;;;;5043349;28;20467;-70
2024/03/22 05:45:02;;;;;;;19.30;12.13;;;6.40;99.90;;;;;;5042764;28;20460;-69
2024/03/22 05:47:28;;;;;;;18.53;12.07;;;6.50;99.90;;;;;;5045458;28;20452;-69
2024/03/22 05:49:56;;;;;;;15.80;10.67;;;6.60;99.90;;;;;;5040851;28;20467;-71
2024/03/22 05:52:22;;;;;;;18.33;10.93;;;6.70;99.90;;;;;;5043644;28;20483;-69
2024/03/22 05:54:51;;;;;;;17.20;11.30;;;6.70;99.90;;;;;;5051443;28;20451;-69
2024/03/22 05:57:17;;;;;;;20.13;11.53;;;6.60;99.90;;;;;;5059102;28;20448;-69
2024/03/22 05:59:44;;;;;;;16.43;11.03;;;6.50;99.90;;;;;;5063781;28;20460;-68
2024/03/22 06:02:10;;;;;;;20.87;11.43;;;6.50;99.90;;;;;;5063129;28;20463;-68
2024/03/22 06:04:37;;;;;;;18.27;10.77;;;6.50;99.90;;;;;;5062789;28;20479;-68
2024/03/22 06:07:06;;;;;;;18.23;11.80;;;6.60;99.90;;;;;;5056655;28;20447;-69
2024/03/22 06:09:37;;;;;;;15.50;10.50;;;6.60;99.90;;;;;;5046043;28;20512;-70
2024/03/22 06:12:04;;;;;;;18.43;11.00;;;6.50;99.90;;;;;;5045683;28;20488;-70
2024/03/22 06:14:31;;;;;;;17.43;11.20;;;6.50;99.90;;;;;;5045979;28;20437;-68
2024/03/22 06:16:57;;;;;;;18.70;11.90;;;6.50;99.90;;;;;;5046861;28;20477;-68
2024/03/22 06:19:25;;;;;;;19.47;11.80;;;6.50;99.90;;;;;;5046521;28;20444;-70
2024/03/22 06:21:51;;;;;;;19.23;11.63;;;6.40;99.90;;;;;;5045677;28;20549;-69
2024/03/22 06:24:20;;;;;;;20.00;11.97;;;6.50;99.90;;;;;;5045917;28;20478;-69
2024/03/22 06:26:46;;;;;;;18.53;11.47;;;6.50;99.90;;;;;;5046481;28;20461;-69
2024/03/22 06:29:13;;;;;;;19.80;12.03;;;6.40;99.90;;;;;;5044913;28;20490;-70
2024/03/22 06:31:39;;;;;;;21.50;12.07;;;6.60;99.90;;;;;;5045332;28;20509;-69
2024/03/22 06:34:06;;;;;;;19.23;11.77;;;6.70;99.90;;;;;;5045350;28;20492;-70
2024/03/22 06:36:32;;;;;;;16.80;10.87;;;6.90;99.90;;;;;;5046121;28;20456;-70
2024/03/22 06:38:59;;;;;;;19.20;11.43;;;7.10;99.90;;;;;;5046823;28;20461;-69
2024/03/22 06:41:28;;;;;;;18.97;11.40;;;7.20;99.90;;;;;;5045754;28;20461;-70
2024/03/22 06:43:56;;;;;;;20.30;11.57;;;7.40;99.90;;;;;;5045110;28;20467;-70
2024/03/22 06:46:22;;;;;;;18.50;11.80;;;7.40;99.90;;;;;;5047306;28;20445;-70
2024/03/22 06:48:49;;;;;;;18.00;11.40;;;7.50;99.90;;;;;;5060744;28;20452;-69
2024/03/22 06:51:16;;;;;;;17.80;11.73;;;7.60;99.90;;;;;;5056796;28;20459;-70
2024/03/22 06:53:43;;;;;;;17.63;11.70;;;7.70;99.90;;;;;;5056623;28;20488;-74
2024/03/22 06:56:11;;;;;;;16.63;10.70;;;7.90;99.90;;;;;;5054946;28;20449;-70
2024/03/22 06:58:40;;;;;;;18.73;11.47;;;8.00;99.90;;;;;;5057903;28;21222;-70
2024/03/22 07:01:06;;;;;;;21.57;11.50;;;8.10;99.90;;;;;;5057861;28;20454;-69
2024/03/22 07:03:33;;;;;;;19.07;11.57;;;8.30;99.90;;;;;;5059966;28;21024;-69
2024/03/22 07:06:00;;;;;;;17.43;11.17;;;8.50;99.90;;;;;;5056130;28;20446;-70
2024/03/22 07:08:27;;;;;;;16.33;11.80;;;8.50;99.90;;;;;;5041290;28;20471;-70
2024/03/22 07:10:54;;;;;;;20.43;11.93;;;8.60;99.90;;;;;;5044233;28;21102;-69
2024/03/22 07:13:21;;;;;;;18.40;11.70;;;8.70;99.90;;;;;;5043577;28;20483;-69
2024/03/22 07:15:49;;;;;;;16.60;10.30;;;8.70;99.90;;;;;;5044442;28;20452;-69
2024/03/22 07:18:16;;;;;;;18.60;10.40;;;8.80;99.90;;;;;;5040006;28;20508;-68
2024/03/22 07:20:42;;;;;;;19.03;10.57;;;9.00;99.90;;;;;;5045074;28;20454;-68
2024/03/22 07:23:09;;;;;;;19.47;11.07;;;9.00;99.90;;;;;;5043630;28;20977;-71
2024/03/22 07:25:35;;;;;;;17.40;9.73;;;9.00;99.90;;;;;;5044870;28;20860;-70
2024/03/22 07:28:02;;;;;;;19.20;11.80;;;9.00;99.90;;;;;;5045014;28;20518;-71
2024/03/22 07:30:28;;;;;;;17.83;11.30;;;9.10;99.90;;;;;;5045333;28;20451;-69
2024/03/22 07:32:57;;;;;;;18.90;12.77;;;9.10;99.90;;;;;;5043764;28;20490;-70
2024/03/22 07:35:24;;;;;;;21.07;12.27;;;9.30;99.90;;;;;;5039977;28;21051;-70
2024/03/22 07:37:51;;;;;;;19.83;12.70;;;9.50;99.90;;;;;;5044165;28;20471;-71
2024/03/22 07:40:18;;;;;;;22.33;11.67;;;9.60;99.90;;;;;;5045963;28;20459;-69
2024/03/22 07:42:45;;;;;;;20.27;12.50;;;9.80;99.90;;;;;;5044541;28;20811;-69
2024/03/22 07:45:11;;;;;;;17.33;12.60;;;9.90;99.90;;;;;;5046093;28;20452;-70
2024/03/22 07:47:38;;;;;;;22.80;13.00;;;10.00;99.90;;;;;;5039899;28;20511;-70
2024/03/22 07:50:06;;;;;;;18.20;13.63;;;10.20;99.90;;;;;;5045903;28;20567;-69
2024/03/22 07:52:33;;;;;;;17.10;11.90;;;10.30;99.90;;;;;;5037335;28;20486;-70
2024/03/22 07:55:02;;;;;;;22.07;13.03;;;10.40;99.90;;;;;;5045257;28;20455;-70
2024/03/22 07:57:30;;;;;;;23.53;13.17;;;10.50;99.90;;;;;;5046472;28;20456;-69
2024/03/22 07:59:56;;;;;;;20.83;12.60;;;10.70;99.90;;;;;;5045802;28;20466;-68
2024/03/22 08:02:23;;;;;;;19.53;12.10;;;10.90;99.90;;;;;;5044463;28;20471;-68
2024/03/22 08:04:49;;;;;;;18.90;11.93;;;11.10;99.90;;;;;;5045753;28;20506;-71
2024/03/22 08:07:18;;;;;;;19.47;12.60;;;11.20;99.90;;;;;;5045840;28;20459;-69
2024/03/22 08:09:44;;;;;;;17.73;11.73;;;11.30;99.90;;;;;;5045692;28;20458;-71
2024/03/22 08:12:11;;;;;;;18.50;11.10;;;11.60;99.90;;;;;;5044482;28;20533;-71
2024/03/22 08:14:37;;;;;;;18.97;11.47;;;11.80;99.90;;;;;;5044863;28;20969;-71
2024/03/22 08:17:04;;;;;;;16.60;10.13;;;12.00;99.90;;;;;;5044714;28;20454;-71
2024/03/22 08:19:30;;;;;;;17.37;11.53;;;12.40;99.90;;;;;;5045445;28;20466;-71
2024/03/22 08:21:57;;;;;;;18.87;10.80;;;12.70;99.90;;;;;;5044612;28;20573;-69
2024/03/22 08:24:25;;;;;;;18.13;10.70;;;12.90;99.90;;;;;;5047658;28;20451;-69
2024/03/22 08:26:52;;;;;;;18.70;10.43;;;13.10;99.90;;;;;;5047826;28;20517;-69
2024/03/22 08:29:18;;;;;;;17.10;11.17;;;13.30;99.90;;;;;;5047928;28;20467;-70
2024/03/22 08:31:45;;;;;;;18.10;11.30;;;13.60;99.90;;;;;;5046706;28;20456;-69
2024/03/22 08:34:11;;;;;;;17.60;10.77;;;13.70;99.90;;;;;;5046747;28;21013;-70
2024/03/22 08:36:38;;;;;;;16.10;10.80;;;13.90;99.90;;;;;;5038925;28;20455;-71
2024/03/22 08:39:05;;;;;;;17.27;10.83;;;14.00;99.90;;;;;;5048104;28;20475;-69
2024/03/22 08:41:33;;;;;;;16.93;11.80;;;14.50;99.90;;;;;;5047248;28;20455;-70
2024/03/22 08:43:59;;;;;;;17.90;11.07;;;14.90;99.90;;;;;;5047378;28;20453;-70
2024/03/22 08:46:26;;;;;;;16.70;10.03;;;15.50;99.90;;;;;;5048021;28;20462;-69
2024/03/22 08:48:53;;;;;;;17.10;9.80;;;15.70;99.90;;;;;;5039089;28;20445;-69
2024/03/22 08:51:21;;;;;;;16.77;10.60;;;15.70;99.90;;;;;;5047445;28;21054;-69
2024/03/22 08:53:47;;;;;;;17.70;10.10;;;15.80;99.90;;;;;;5037697;28;20492;-70
2024/03/22 08:56:14;;;;;;;16.33;10.47;;;16.00;99.90;;;;;;5048759;28;20467;-70
2024/03/22 08:58:42;;;;;;;15.57;9.20;;;16.10;99.90;;;;;;5040613;28;20489;-69
2024/03/22 09:01:09;;;;;;;13.77;9.50;;;16.10;99.90;;;;;;5050154;28;21106;-70
2024/03/22 09:03:36;;;;;;;16.10;9.50;;;16.30;99.90;;;;;;5049712;28;20464;-70
2024/03/22 09:06:04;;;;;;;12.67;9.00;;;16.30;99.90;;;;;;5051775;28;20525;-70
2024/03/22 09:08:31;;;;;;;15.10;9.53;;;16.40;99.90;;;;;;5051655;28;20471;-69
2024/03/22 09:10:58;;;;;;;13.53;9.03;;;16.50;99.90;;;;;;5050353;28;20456;-70
2024/03/22 09:13:25;;;;;;;16.13;9.50;;;16.60;99.90;;;;;;5050191;28;20488;-70
2024/03/22 09:15:59;;;;;;;14.87;9.20;;;16.70;99.90;;;;;;5051275;28;20448;-69
2024/03/22 09:18:25;;;;;;;13.90;8.70;;;16.70;99.90;;;;;;5051851;28;20448;-69
2024/03/22 09:20:52;;;;;;;12.63;8.60;;;16.80;99.90;;;;;;5051919;28;20474;-69
2024/03/22 09:23:19;;;;;;;13.80;9.37;;;17.00;99.90;;;;;;5049121;28;20476;-70
2024/03/22 09:25:46;;;;;;;15.83;9.43;;;16.90;99.20;;;;;;5052547;28;20458;-69
2024/03/22 09:28:12;;;;;;;14.83;9.23;;;17.10;99.90;;;;;;5053890;28;20475;-70
2024/03/22 09:30:39;;;;;;;16.87;9.37;;;17.40;99.90;;;;;;5052413;28;20457;-72
2024/03/22 09:33:07;;;;;;;14.60;8.50;;;17.60;98.90;;;;;;5049047;28;21001;-68
2024/03/22 09:35:34;;;;;;;13.40;8.37;;;17.70;98.70;;;;;;5051856;28;20463;-70
2024/03/22 09:38:01;;;;;;;15.80;9.53;;;17.80;99.20;;;;;;5050314;28;20444;-70
2024/03/22 09:40:29;;;;;;;13.43;8.40;;;18.00;99.90;;;;;;5050382;28;20440;-70
2024/03/22 09:43:02;;;;;;;14.77;9.33;;;18.40;99.00;;;;;;5048036;28;20483;-69
2024/03/22 09:45:30;;;;;;;14.80;8.97;;;18.70;97.10;;;;;;5048162;28;20463;-69
2024/03/22 09:47:57;;;;;;;13.23;9.00;;;18.90;95.70;;;;;;5050111;28;20517;-69
2024/03/22 09:50:26;;;;;;;16.33;9.70;;;18.70;93.50;;;;;;5047380;28;20957;-69
2024/03/22 09:52:52;;;;;;;15.27;9.47;;;18.70;93.00;;;;;;5047774;28;20492;-68
2024/03/22 09:55:23;;;;;;;14.17;7.73;;;18.60;94.20;;;;;;5050180;28;20459;-67
2024/03/22 09:57:50;;;;;;;14.07;8.07;;;18.60;91.50;;;;;;5050970;28;20533;-69
2024/03/22 10:00:20;;;;;;;15.23;8.53;;;19.00;91.20;;;;;;5050668;28;20452;-69
2024/03/22 10:02:46;;;;;;;14.20;8.67;;;19.70;91.10;;;;;;5049909;28;20529;-68
2024/03/22 10:05:13;;;;;;;15.63;7.90;;;20.30;82.60;;;;;;5052465;28;20452;-69
2024/03/22 10:07:41;;;;;;;14.80;8.70;;;20.30;82.20;;;;;;5045306;28;20456;-69
2024/03/22 10:10:08;;;;;;;12.23;8.20;;;20.00;79.50;;;;;;5054213;28;20517;-70
2024/03/22 10:12:34;;;;;;;11.63;7.93;;;19.80;81.00;;;;;;5052267;28;20475;-69
2024/03/22 10:15:01;;;;;;;17.07;9.10;;;19.60;81.40;;;;;;5053779;28;20449;-68
2024/03/22 10:17:29;;;;;;;16.90;7.93;;;19.80;82.90;;;;;;5053994;28;20467;-69
2024/03/22 10:19:56;;;;;;;15.63;8.07;;;19.80;78.90;;;;;;5053704;28;21376;-69
2024/03/22 10:22:24;;;;;;;14.20;7.00;;;19.70;78.70;;;;;;5041229;28;20475;-72
2024/03/22 10:24:53;;;;;;;13.47;7.37;;;19.70;82.50;;;;;;5035212;28;20809;-71
2024/03/22 10:27:19;;;;;;;11.40;7.00;;;19.80;80.00;;;;;;5054751;28;20452;-69
2024/03/22 10:29:48;;;;;;;13.70;8.33;;;20.10;80.70;;;;;;5044701;28;20959;-69
2024/03/22 10:32:16;;;;;;;13.40;7.83;;;20.10;75.90;;;;;;5050830;28;20472;-71
2024/03/22 10:34:45;;;;;;;12.20;8.13;;;20.00;77.50;;;;;;5050390;28;20488;-71
2024/03/22 10:37:15;;;;;;;15.70;7.70;;;20.40;75.60;;;;;;5048753;28;20448;-69
2024/03/22 10:39:44;;;;;;;11.90;7.60;;;20.80;76.00;;;;;;5046970;28;20489;-69
2024/03/22 10:42:12;;;;;;;13.00;7.43;;;20.90;73.10;;;;;;5045997;28;20464;-70
2024/03/22 10:44:39;;;;;;;11.30;5.77;;;21.00;74.70;;;;;;5045448;28;20514;-71
2024/03/22 10:47:10;;;;;;;11.63;6.20;;;21.30;72.60;;;;;;5046044;28;20456;-69
2024/03/22 10:49:38;;;;;;;9.60;4.57;;;21.60;69.40;;;;;;5046005;28;20471;-70
2024/03/22 10:52:07;;;;;;;11.53;5.57;;;21.90;69.10;;;;;;5045048;28;20476;-69
2024/03/22 10:54:37;;;;;;;10.73;5.73;;;22.00;64.40;;;;;;5045377;28;20515;-70
2024/03/22 10:57:06;;;;;;;11.97;7.33;;;22.60;66.80;;;;;;5046016;28;20448;-70
2024/03/22 10:59:35;;;;;;;11.50;6.30;;;23.00;63.80;;;;;;5046376;28;20509;-69
2024/03/22 11:02:06;;;;;;;14.60;6.77;;;22.80;59.50;;;;;;5044878;28;20476;-69
2024/03/22 11:04:33;;;;;;;12.70;6.23;;;22.60;60.50;;;;;;5045806;28;20448;-71
2024/03/22 11:07:02;;;;;;;13.60;6.17;;;22.00;59.30;;;;;;5045975;28;20451;-69
2024/03/22 11:09:28;;;;;;;10.87;6.30;;;21.80;59.90;;;;;;5045607;28;20463;-70
2024/03/22 11:11:58;;;;;;;10.97;6.90;;;21.80;60.40;;;;;;5045325;28;20521;-69
2024/03/22 11:14:24;;;;;;;10.20;5.80;;;21.80;58.90;;;;;;5040408;28;20472;-71
2024/03/22 11:16:53;;;;;;;10.80;5.23;;;21.80;60.70;;;;;;5059007;28;20443;-69
2024/03/22 11:19:19;;;;;;;11.50;5.97;;;21.80;58.90;;;;;;5052045;28;20456;-69
2024/03/22 11:21:46;;;;;;;11.17;5.67;;;21.40;61.70;;;;;;5044931;28;20448;-69
2024/03/22 11:24:12;;;;;;;10.70;6.03;;;21.20;61.60;;;;;;5040244;28;20445;-69
2024/03/22 11:26:39;;;;;;;12.87;6.10;;;21.30;60.80;;;;;;5040006;28;20499;-70
2024/03/22 11:29:05;;;;;;;9.70;5.43;;;21.70;59.50;;;;;;5053741;28;20446;-69
2024/03/22 11:31:33;;;;;;;10.60;5.40;;;21.50;58.60;;;;;;5062738;28;20443;-68
2024/03/22 11:34:00;;;;;;;10.30;5.50;;;20.70;59.70;;;;;;5062520;28;20488;-68
2024/03/22 11:36:27;;;;;;;10.50;5.60;;;20.80;61.10;;;;;;5048923;28;20852;-67
2024/03/22 11:38:54;;;;;;;9.73;3.90;;;20.90;58.80;;;;;;5056478;28;20451;-69
2024/03/22 11:41:25;;;;;;;8.50;4.00;;;21.00;57.50;;;;;;5054584;28;20442;-69
2024/03/22 11:43:51;;;;;;;10.67;5.20;;;21.50;57.00;;;;;;5054116;28;20467;-69
2024/03/22 11:46:21;;;;;;;14.20;4.70;;;22.20;56.80;;;;;;5049350;28;20455;-69
2024/03/22 11:48:51;;;;;;;9.10;4.43;;;22.40;55.10;;;;;;5058183;28;20456;-69
2024/03/22 11:51:20;;;;;;;11.37;4.47;;;22.40;56.40;;;;;;5050917;28;20451;-69
2024/03/22 11:53:50;;;;;;;11.03;4.27;;;23.20;53.30;;;;;;5048519;28;20479;-69
2024/03/22 11:56:19;;;;;;;9.93;4.47;;;24.00;54.30;;;;;;5035164;28;21127;-69
2024/03/22 11:58:47;;;;;;;8.70;3.97;;;24.70;52.80;;;;;;5032068;28;20478;-69
2024/03/22 12:01:15;;;;;;;9.50;4.60;;;24.70;50.50;;;;;;5043682;28;21427;-69
2024/03/22 12:03:43;;;;;;;8.07;4.03;;;24.30;50.90;;;;;;5044846;28;20479;-69
2024/03/22 12:06:11;;;;;;;10.50;4.70;;;23.20;51.70;;;;;;5033840;28;20444;-69
2024/03/22 12:08:40;;;;;;;11.33;4.73;;;22.00;54.00;;;;;;5034030;28;20463;-69
2024/03/22 12:11:09;;;;;;;8.60;3.43;;;21.40;56.00;;;;;;5035439;28;20457;-69
2024/03/22 12:13:35;;;;;;;11.50;4.10;;;20.90;54.60;;;;;;5043555;28;20504;-69
2024/03/22 12:16:02;;;;;;;10.93;3.60;;;20.60;54.50;;;;;;5041693;28;20533;-69
2024/03/22 12:18:28;;;;;;;12.37;4.73;;;20.40;56.60;;;;;;5043668;28;20453;-69
2024/03/22 12:20:55;;;;;;;12.53;3.67;;;20.40;56.40;;;;;;5046661;28;20436;-69
2024/03/22 12:23:22;;;;;;;7.87;3.37;;;20.20;57.90;;;;;;5032658;28;21040;-71
2024/03/22 12:25:50;;;;;;;10.00;3.77;;;20.20;57.60;;;;;;5057117;28;21261;-69
2024/03/22 12:28:16;;;;;;;8.67;3.47;;;20.20;56.90;;;;;;5041926;28;20449;-69
2024/03/22 12:30:44;;;;;;;8.73;3.40;;;20.10;55.80;;;;;;5041248;28;20444;-69
2024/03/22 12:33:10;;;;;;;8.87;3.30;;;20.20;56.10;;;;;;5043534;28;21128;-68
2024/03/22 12:35:37;;;;;;;8.80;3.97;;;20.30;56.90;;;;;;5055878;28;20448;-68